This is the latest recevied weather packets stored in our database for station/object N6GPM. If no packets are shown the sender has not sent any weather packets the latest 10 day(s).
| Time | Temp. | Humidity | Pressure | Rain* | Wind** | Luminosity | Snow |
|---|---|---|---|---|---|---|---|
| 1777694297 | 17.78° C | 74% | 1017 hPa | 0 mm | - | 0 W/m² | - |
| 1777693993 | 17.78° C | 73% | 1017 hPa | 0 mm | - | 0 W/m² | - |
| 1777693691 | 17.78° C | 73% | 1016.8 hPa | 0 mm | - | 0 W/m² | - |
| 1777693389 | 17.78° C | 73% | 1016.7 hPa | 0 mm | - | 0 W/m² | - |
| 1777693087 | 17.78° C | 72% | 1016.8 hPa | 0 mm | - | 0 W/m² | - |
| 1777692784 | 18.33° C | 71% | 1016.8 hPa | 0 mm | - | 0 W/m² | - |
| 1777692481 | 18.33° C | 71% | 1016.6 hPa | 0 mm | - | 0 W/m² | - |
| 1777692177 | 18.33° C | 70% | 1016.5 hPa | 0 mm | - | 0 W/m² | - |
| 1777691875 | 18.33° C | 69% | 1016.4 hPa | 0 mm | - | 0 W/m² | - |
| 1777691573 | 18.89° C | 69% | 1016.4 hPa | 0 mm | - | 0 W/m² | - |
| 1777691271 | 19.44° C | 68% | 1016.2 hPa | 0 mm | - | 0 W/m² | - |
| 1777690969 | 19.44° C | 67% | 1016.2 hPa | 0 mm | - | 0 W/m² | - |
| 1777690666 | 19.44° C | 67% | 1016.2 hPa | 0 mm | - | 0 W/m² | - |
| 1777690364 | 20° C | 66% | 1016.1 hPa | 0 mm | - | 0 W/m² | - |
| 1777690061 | 20° C | 66% | 1016.1 hPa | 0 mm | - | 0 W/m² | - |
| 1777689759 | 20° C | 66% | 1015.8 hPa | 0 mm | - | 0 W/m² | - |
| 1777689457 | 20° C | 65% | 1015.8 hPa | 0 mm | - | 0 W/m² | - |
| 1777688548 | 20.56° C | 64% | 1015.8 hPa | 0 mm | - | 7 W/m² | - |
| 1777674003 | 24.44° C | 56% | 1015.9 hPa | 0 mm | - | 594 W/m² | - |
| 1777671879 | 23.89° C | 57% | 1016.3 hPa | 0 mm | - | 688 W/m² | - |
| 1777670967 | 23.33° C | 57% | 1016.3 hPa | 0 mm | - | 673 W/m² | - |
| 1777669756 | 23.33° C | 57% | 1016.8 hPa | 0 mm | - | 711 W/m² | - |
| 1777669452 | 23.89° C | 56% | 1016.8 hPa | 0 mm | - | 700 W/m² | - |
| 1777669149 | 23.33° C | 56% | 1016.6 hPa | 0 mm | - | 706 W/m² | - |
| 1777668846 | 22.78° C | 56% | 1016.5 hPa | 0 mm | - | 709 W/m² | - |
* Rain latest hour (hover to see other rain measurements)
** Current wind speed in m/s (hover to see current wind gust speed)